sensor_id;sensor_type;location;lat;lon;timestamp;pressure;altitude;pressure_sealevel;temperature;humidity
74334;BME280;62753;40.394;-80.022;2023-04-16T00:00:49;96803.85;;;22.49;45.10
74334;BME280;62753;40.394;-80.022;2023-04-16T00:03:14;96812.25;;;23.50;43.11
74334;BME280;62753;40.394;-80.022;2023-04-16T00:05:39;96806.86;;;23.69;42.87
74334;BME280;62753;40.394;-80.022;2023-04-16T00:08:05;96802.84;;;23.64;40.95
74334;BME280;62753;40.394;-80.022;2023-04-16T00:10:30;96803.95;;;23.35;42.02
74334;BME280;62753;40.394;-80.022;2023-04-16T00:12:55;96801.63;;;23.10;43.02
74334;BME280;62753;40.394;-80.022;2023-04-16T00:15:20;96798.56;;;23.40;42.95
74334;BME280;62753;40.394;-80.022;2023-04-16T00:17:45;96790.26;;;23.61;42.08
74334;BME280;62753;40.394;-80.022;2023-04-16T00:20:11;96782.79;;;23.27;44.18
74334;BME280;62753;40.394;-80.022;2023-04-16T00:22:36;96773.36;;;23.60;42.63
74334;BME280;62753;40.394;-80.022;2023-04-16T00:25:01;96761.99;;;23.55;42.93
74334;BME280;62753;40.394;-80.022;2023-04-16T00:27:26;96754.77;;;23.48;42.30
74334;BME280;62753;40.394;-80.022;2023-04-16T00:29:51;96750.97;;;23.19;42.36
74334;BME280;62753;40.394;-80.022;2023-04-16T00:32:17;96742.20;;;23.18;42.05
74334;BME280;62753;40.394;-80.022;2023-04-16T00:34:42;96740.45;;;23.03;43.42
74334;BME280;62753;40.394;-80.022;2023-04-16T00:37:07;96732.16;;;23.05;42.94
74334;BME280;62753;40.394;-80.022;2023-04-16T00:39:33;96722.85;;;23.49;42.31
74334;BME280;62753;40.394;-80.022;2023-04-16T00:41:58;96716.84;;;23.00;42.65
74334;BME280;62753;40.394;-80.022;2023-04-16T00:44:24;96707.03;;;22.98;43.34
74334;BME280;62753;40.394;-80.022;2023-04-16T00:46:49;96697.72;;;22.76;42.71
74334;BME280;62753;40.394;-80.022;2023-04-16T00:49:15;96689.81;;;22.69;41.77
74334;BME280;62753;40.394;-80.022;2023-04-16T00:51:40;96681.34;;;23.31;42.21
74334;BME280;62753;40.394;-80.022;2023-04-16T00:54:05;96670.37;;;22.85;43.76
74334;BME280;62753;40.394;-80.022;2023-04-16T00:56:31;96662.19;;;23.82;42.11
74334;BME280;62753;40.394;-80.022;2023-04-16T00:58:56;96655.31;;;23.81;41.99
74334;BME280;62753;40.394;-80.022;2023-04-16T01:01:21;96655.80;;;23.09;43.27
74334;BME280;62753;40.394;-80.022;2023-04-16T01:03:48;96652.62;;;22.81;43.89
74334;BME280;62753;40.394;-80.022;2023-04-16T01:06:13;96640.90;;;22.68;44.39
74334;BME280;62753;40.394;-80.022;2023-04-16T01:08:38;96634.29;;;22.43;44.19
74334;BME280;62753;40.394;-80.022;2023-04-16T01:11:02;96630.98;;;22.62;44.15
74334;BME280;62753;40.394;-80.022;2023-04-16T01:13:29;96632.12;;;23.07;42.46
74334;BME280;62753;40.394;-80.022;2023-04-16T01:15:53;96637.07;;;21.54;45.74
74334;BME280;62753;40.394;-80.022;2023-04-16T01:18:20;96652.93;;;20.92;47.64
74334;BME280;62753;40.394;-80.022;2023-04-16T01:20:44;96671.89;;;20.48;48.70
74334;BME280;62753;40.394;-80.022;2023-04-16T01:23:09;96696.20;;;20.90;48.79
74334;BME280;62753;40.394;-80.022;2023-04-16T01:25:34;96705.28;;;21.20;48.19
74334;BME280;62753;40.394;-80.022;2023-04-16T01:27:59;96708.09;;;21.84;45.97
74334;BME280;62753;40.394;-80.022;2023-04-16T01:30:25;96710.74;;;22.04;44.96
74334;BME280;62753;40.394;-80.022;2023-04-16T01:32:50;96729.58;;;22.42;43.67
74334;BME280;62753;40.394;-80.022;2023-04-16T01:35:16;96766.18;;;23.14;41.84
74334;BME280;62753;40.394;-80.022;2023-04-16T01:37:41;96790.83;;;23.60;39.81
74334;BME280;62753;40.394;-80.022;2023-04-16T01:40:07;96798.28;;;23.63;38.96
74334;BME280;62753;40.394;-80.022;2023-04-16T01:42:32;96792.62;;;24.15;38.95
74334;BME280;62753;40.394;-80.022;2023-04-16T01:44:58;96800.44;;;24.10;37.98
74334;BME280;62753;40.394;-80.022;2023-04-16T01:47:23;96817.53;;;24.64;37.49
74334;BME280;62753;40.394;-80.022;2023-04-16T01:49:49;96815.79;;;24.51;37.51
74334;BME280;62753;40.394;-80.022;2023-04-16T01:52:15;96813.55;;;24.64;38.05
74334;BME280;62753;40.394;-80.022;2023-04-16T01:54:40;96819.84;;;24.16;36.97
74334;BME280;62753;40.394;-80.022;2023-04-16T01:57:05;96817.21;;;24.69;36.60
74334;BME280;62753;40.394;-80.022;2023-04-16T01:59:30;96812.98;;;25.04;35.88
74334;BME280;62753;40.394;-80.022;2023-04-16T02:01:56;96822.04;;;24.41;36.64
74334;BME280;62753;40.394;-80.022;2023-04-16T02:04:21;96820.29;;;24.46;35.42
74334;BME280;62753;40.394;-80.022;2023-04-16T02:06:46;96819.04;;;24.88;34.49
74334;BME280;62753;40.394;-80.022;2023-04-16T02:09:12;96825.26;;;25.02;34.04
74334;BME280;62753;40.394;-80.022;2023-04-16T02:11:36;96824.55;;;25.05;34.21
74334;BME280;62753;40.394;-80.022;2023-04-16T02:14:02;96816.17;;;25.11;34.05
74334;BME280;62753;40.394;-80.022;2023-04-16T02:16:28;96819.68;;;25.05;34.16
74334;BME280;62753;40.394;-80.022;2023-04-16T02:18:53;96830.25;;;25.17;33.10
74334;BME280;62753;40.394;-80.022;2023-04-16T02:21:18;96837.70;;;25.49;32.38
74334;BME280;62753;40.394;-80.022;2023-04-16T02:23:43;96837.54;;;25.24;32.94
74334;BME280;62753;40.394;-80.022;2023-04-16T02:26:09;96839.59;;;25.82;32.38
74334;BME280;62753;40.394;-80.022;2023-04-16T02:28:34;96845.05;;;25.49;32.73
74334;BME280;62753;40.394;-80.022;2023-04-16T02:30:59;96853.97;;;25.96;31.53
74334;BME280;62753;40.394;-80.022;2023-04-16T02:33:25;96861.13;;;25.51;32.90
74334;BME280;62753;40.394;-80.022;2023-04-16T02:35:50;96867.37;;;25.30;32.90
74334;BME280;62753;40.394;-80.022;2023-04-16T02:38:15;96875.37;;;25.27;32.74
74334;BME280;62753;40.394;-80.022;2023-04-16T02:40:41;96883.74;;;25.07;34.85
74334;BME280;62753;40.394;-80.022;2023-04-16T02:43:06;96896.83;;;24.15;36.72
74334;BME280;62753;40.394;-80.022;2023-04-16T02:45:32;96902.12;;;23.60;37.60
74334;BME280;62753;40.394;-80.022;2023-04-16T02:47:58;96912.70;;;23.22;39.33
74334;BME280;62753;40.394;-80.022;2023-04-16T02:50:23;96914.12;;;23.28;39.99
74334;BME280;62753;40.394;-80.022;2023-04-16T02:52:48;96914.99;;;22.62;41.11
74334;BME280;62753;40.394;-80.022;2023-04-16T02:55:13;96918.41;;;23.33;41.21
74334;BME280;62753;40.394;-80.022;2023-04-16T02:57:38;96919.79;;;22.47;41.58
74334;BME280;62753;40.394;-80.022;2023-04-16T03:00:05;96917.60;;;23.45;40.89
74334;BME280;62753;40.394;-80.022;2023-04-16T03:02:30;96920.38;;;23.63;39.61
74334;BME280;62753;40.394;-80.022;2023-04-16T03:04:55;96919.74;;;23.85;39.15
74334;BME280;62753;40.394;-80.022;2023-04-16T03:07:20;96920.41;;;24.11;38.66
74334;BME280;62753;40.394;-80.022;2023-04-16T03:09:46;96918.72;;;23.66;38.89
74334;BME280;62753;40.394;-80.022;2023-04-16T03:12:11;96918.06;;;23.29;40.09
74334;BME280;62753;40.394;-80.022;2023-04-16T03:14:36;96921.94;;;23.07;41.75
74334;BME280;62753;40.394;-80.022;2023-04-16T03:17:02;96922.30;;;22.44;42.85
74334;BME280;62753;40.394;-80.022;2023-04-16T03:19:26;96924.97;;;22.21;43.93
74334;BME280;62753;40.394;-80.022;2023-04-16T03:21:52;96922.22;;;22.01;44.09
74334;BME280;62753;40.394;-80.022;2023-04-16T03:24:18;96916.79;;;22.44;42.93
74334;BME280;62753;40.394;-80.022;2023-04-16T03:26:44;96914.21;;;23.03;42.76
74334;BME280;62753;40.394;-80.022;2023-04-16T03:29:09;96911.79;;;23.39;41.28
74334;BME280;62753;40.394;-80.022;2023-04-16T03:31:35;96910.05;;;23.23;41.33
74334;BME280;62753;40.394;-80.022;2023-04-16T03:34:00;96903.11;;;23.47;40.37
74334;BME280;62753;40.394;-80.022;2023-04-16T03:36:26;96897.38;;;23.84;39.52
74334;BME280;62753;40.394;-80.022;2023-04-16T03:38:52;96895.96;;;23.72;39.63
74334;BME280;62753;40.394;-80.022;2023-04-16T03:41:17;96890.45;;;23.73;39.62
74334;BME280;62753;40.394;-80.022;2023-04-16T03:43:42;96887.07;;;23.86;39.37
74334;BME280;62753;40.394;-80.022;2023-04-16T03:46:08;96882.99;;;24.25;38.37
74334;BME280;62753;40.394;-80.022;2023-04-16T03:48:33;96882.98;;;23.64;39.23
74334;BME280;62753;40.394;-80.022;2023-04-16T03:50:59;96878.23;;;24.02;38.80
74334;BME280;62753;40.394;-80.022;2023-04-16T03:53:24;96870.79;;;23.08;40.03
74334;BME280;62753;40.394;-80.022;2023-04-16T03:55:50;96866.40;;;23.97;38.95
74334;BME280;62753;40.394;-80.022;2023-04-16T03:58:14;96859.62;;;23.99;38.95
74334;BME280;62753;40.394;-80.022;2023-04-16T04:00:41;96849.53;;;23.48;39.69
74334;BME280;62753;40.394;-80.022;2023-04-16T04:03:06;96847.10;;;23.77;39.01
74334;BME280;62753;40.394;-80.022;2023-04-16T04:05:35;96847.11;;;24.07;38.29
74334;BME280;62753;40.394;-80.022;2023-04-16T04:07:56;96849.45;;;24.04;37.94
74334;BME280;62753;40.394;-80.022;2023-04-16T04:10:22;96851.79;;;24.22;37.44
74334;BME280;62753;40.394;-80.022;2023-04-16T04:12:48;96855.76;;;24.24;37.53
74334;BME280;62753;40.394;-80.022;2023-04-16T04:15:13;96855.45;;;23.53;38.25
74334;BME280;62753;40.394;-80.022;2023-04-16T04:17:38;96851.59;;;24.14;38.17
74334;BME280;62753;40.394;-80.022;2023-04-16T04:20:04;96850.79;;;24.43;36.89
74334;BME280;62753;40.394;-80.022;2023-04-16T04:22:29;96853.52;;;24.57;36.84
74334;BME280;62753;40.394;-80.022;2023-04-16T04:24:55;96855.62;;;23.88;38.24
74334;BME280;62753;40.394;-80.022;2023-04-16T04:27:21;96856.80;;;24.32;38.19
74334;BME280;62753;40.394;-80.022;2023-04-16T04:29:46;96855.93;;;23.92;38.48
74334;BME280;62753;40.394;-80.022;2023-04-16T04:32:11;96852.93;;;23.69;38.64
74334;BME280;62753;40.394;-80.022;2023-04-16T04:34:36;96849.44;;;23.96;38.37
74334;BME280;62753;40.394;-80.022;2023-04-16T04:37:02;96847.18;;;24.09;38.07
74334;BME280;62753;40.394;-80.022;2023-04-16T04:39:28;96840.68;;;24.19;38.04
74334;BME280;62753;40.394;-80.022;2023-04-16T04:41:54;96841.21;;;23.96;37.88
74334;BME280;62753;40.394;-80.022;2023-04-16T04:44:19;96838.57;;;23.70;38.26
74334;BME280;62753;40.394;-80.022;2023-04-16T04:46:44;96836.73;;;23.48;38.42
74334;BME280;62753;40.394;-80.022;2023-04-16T04:49:10;96836.54;;;23.59;38.56
74334;BME280;62753;40.394;-80.022;2023-04-16T04:51:35;96839.96;;;23.96;37.90
74334;BME280;62753;40.394;-80.022;2023-04-16T04:54:00;96834.89;;;23.75;38.30
74334;BME280;62753;40.394;-80.022;2023-04-16T04:56:25;96832.41;;;23.26;38.75
74334;BME280;62753;40.394;-80.022;2023-04-16T04:58:51;96831.10;;;23.87;38.34
74334;BME280;62753;40.394;-80.022;2023-04-16T05:01:16;96826.44;;;23.39;39.04
74334;BME280;62753;40.394;-80.022;2023-04-16T05:03:41;96820.10;;;24.18;38.21
74334;BME280;62753;40.394;-80.022;2023-04-16T05:06:07;96818.06;;;22.96;39.05
74334;BME280;62753;40.394;-80.022;2023-04-16T05:08:32;96812.09;;;23.00;40.14
74334;BME280;62753;40.394;-80.022;2023-04-16T05:10:57;96807.92;;;23.61;38.95
74334;BME280;62753;40.394;-80.022;2023-04-16T05:13:22;96802.94;;;23.86;39.10
74334;BME280;62753;40.394;-80.022;2023-04-16T05:15:49;96801.62;;;23.29;39.29
74334;BME280;62753;40.394;-80.022;2023-04-16T05:18:13;96802.57;;;23.32;39.20
74334;BME280;62753;40.394;-80.022;2023-04-16T05:20:39;96805.77;;;23.83;38.54
74334;BME280;62753;40.394;-80.022;2023-04-16T05:23:04;96804.04;;;23.79;38.46
74334;BME280;62753;40.394;-80.022;2023-04-16T05:25:29;96805.55;;;23.58;39.45
74334;BME280;62753;40.394;-80.022;2023-04-16T05:27:55;96803.44;;;22.82;40.93
74334;BME280;62753;40.394;-80.022;2023-04-16T05:30:20;96806.94;;;23.28;40.55
74334;BME280;62753;40.394;-80.022;2023-04-16T05:32:46;96805.50;;;22.91;40.60
74334;BME280;62753;40.394;-80.022;2023-04-16T05:35:11;96808.28;;;22.14;42.89
74334;BME280;62753;40.394;-80.022;2023-04-16T05:37:37;96805.54;;;21.83;43.23
74334;BME280;62753;40.394;-80.022;2023-04-16T05:40:02;96805.88;;;22.44;42.42
74334;BME280;62753;40.394;-80.022;2023-04-16T05:42:28;96811.20;;;22.42;42.66
74334;BME280;62753;40.394;-80.022;2023-04-16T05:44:53;96814.68;;;22.50;41.89
74334;BME280;62753;40.394;-80.022;2023-04-16T05:47:19;96817.56;;;22.95;40.59
74334;BME280;62753;40.394;-80.022;2023-04-16T05:49:45;96820.07;;;22.80;40.37
74334;BME280;62753;40.394;-80.022;2023-04-16T05:52:11;96828.89;;;22.97;39.96
74334;BME280;62753;40.394;-80.022;2023-04-16T05:54:36;96832.08;;;22.91;39.52
74334;BME280;62753;40.394;-80.022;2023-04-16T05:57:02;96828.09;;;23.25;38.75
74334;BME280;62753;40.394;-80.022;2023-04-16T05:59:27;96826.80;;;23.61;38.68
74334;BME280;62753;40.394;-80.022;2023-04-16T06:01:52;96826.06;;;23.46;38.56
74334;BME280;62753;40.394;-80.022;2023-04-16T06:04:17;96824.33;;;23.16;38.74
74334;BME280;62753;40.394;-80.022;2023-04-16T06:06:43;96818.56;;;23.10;38.92
74334;BME280;62753;40.394;-80.022;2023-04-16T06:09:08;96811.25;;;23.05;39.14
74334;BME280;62753;40.394;-80.022;2023-04-16T06:11:33;96808.90;;;23.07;39.36
74334;BME280;62753;40.394;-80.022;2023-04-16T06:13:59;96806.71;;;23.12;39.24
74334;BME280;62753;40.394;-80.022;2023-04-16T06:16:25;96804.88;;;22.99;39.37
74334;BME280;62753;40.394;-80.022;2023-04-16T06:18:50;96802.23;;;22.51;39.91
74334;BME280;62753;40.394;-80.022;2023-04-16T06:21:16;96796.87;;;22.37;41.16
74334;BME280;62753;40.394;-80.022;2023-04-16T06:23:40;96791.90;;;21.21;44.19
74334;BME280;62753;40.394;-80.022;2023-04-16T06:26:06;96789.97;;;20.86;44.58
74334;BME280;62753;40.394;-80.022;2023-04-16T06:28:31;96792.90;;;21.19;43.98
74334;BME280;62753;40.394;-80.022;2023-04-16T06:30:58;96795.36;;;21.40;43.62
74334;BME280;62753;40.394;-80.022;2023-04-16T06:33:22;96797.72;;;21.55;43.05
74334;BME280;62753;40.394;-80.022;2023-04-16T06:35:48;96792.71;;;21.84;41.87
74334;BME280;62753;40.394;-80.022;2023-04-16T06:38:13;96787.10;;;22.28;40.71
74334;BME280;62753;40.394;-80.022;2023-04-16T06:40:39;96783.30;;;22.48;39.77
74334;BME280;62753;40.394;-80.022;2023-04-16T06:43:05;96782.82;;;23.20;39.52
74334;BME280;62753;40.394;-80.022;2023-04-16T06:45:30;96778.30;;;23.08;38.89
74334;BME280;62753;40.394;-80.022;2023-04-16T06:47:56;96779.35;;;23.00;38.43
74334;BME280;62753;40.394;-80.022;2023-04-16T06:50:21;96775.87;;;23.34;37.88
74334;BME280;62753;40.394;-80.022;2023-04-16T06:52:47;96767.41;;;23.08;37.65
74334;BME280;62753;40.394;-80.022;2023-04-16T06:55:12;96765.50;;;22.86;37.78
74334;BME280;62753;40.394;-80.022;2023-04-16T06:57:37;96764.21;;;23.17;37.68
74334;BME280;62753;40.394;-80.022;2023-04-16T07:00:03;96768.66;;;23.26;37.55
74334;BME280;62753;40.394;-80.022;2023-04-16T07:02:28;96771.00;;;23.25;37.53
74334;BME280;62753;40.394;-80.022;2023-04-16T07:04:58;96766.57;;;23.18;37.25
74334;BME280;62753;40.394;-80.022;2023-04-16T07:07:19;96765.37;;;23.01;37.40
74334;BME280;62753;40.394;-80.022;2023-04-16T07:09:45;96761.36;;;23.27;36.94
74334;BME280;62753;40.394;-80.022;2023-04-16T07:12:10;96765.96;;;23.15;37.08
74334;BME280;62753;40.394;-80.022;2023-04-16T07:14:35;96767.80;;;22.74;37.38
74334;BME280;62753;40.394;-80.022;2023-04-16T07:17:01;96766.47;;;22.51;37.30
74334;BME280;62753;40.394;-80.022;2023-04-16T07:19:26;96764.75;;;23.18;36.97
74334;BME280;62753;40.394;-80.022;2023-04-16T07:21:51;96763.47;;;23.30;36.97
74334;BME280;62753;40.394;-80.022;2023-04-16T07:24:17;96764.62;;;22.97;37.10
74334;BME280;62753;40.394;-80.022;2023-04-16T07:26:42;96761.50;;;23.17;37.12
74334;BME280;62753;40.394;-80.022;2023-04-16T07:29:07;96762.76;;;23.11;37.20
74334;BME280;62753;40.394;-80.022;2023-04-16T07:31:33;96766.54;;;22.50;37.27
74334;BME280;62753;40.394;-80.022;2023-04-16T07:33:58;96769.35;;;23.25;37.24
74334;BME280;62753;40.394;-80.022;2023-04-16T07:36:25;96767.69;;;22.91;37.59
74334;BME280;62753;40.394;-80.022;2023-04-16T07:38:50;96766.10;;;22.67;37.17
74334;BME280;62753;40.394;-80.022;2023-04-16T07:41:15;96770.23;;;23.14;36.96
74334;BME280;62753;40.394;-80.022;2023-04-16T07:43:41;96773.05;;;22.99;37.17
74334;BME280;62753;40.394;-80.022;2023-04-16T07:46:06;96774.71;;;22.85;37.08
74334;BME280;62753;40.394;-80.022;2023-04-16T07:48:31;96774.98;;;23.38;37.11
74334;BME280;62753;40.394;-80.022;2023-04-16T07:50:57;96775.48;;;23.19;37.42
74334;BME280;62753;40.394;-80.022;2023-04-16T07:53:22;96784.22;;;23.16;36.71
74334;BME280;62753;40.394;-80.022;2023-04-16T07:55:48;96785.16;;;22.92;36.78
74334;BME280;62753;40.394;-80.022;2023-04-16T07:58:14;96790.12;;;23.22;36.78
74334;BME280;62753;40.394;-80.022;2023-04-16T08:00:39;96789.60;;;23.15;36.79
74334;BME280;62753;40.394;-80.022;2023-04-16T08:03:04;96789.40;;;22.71;37.10
74334;BME280;62753;40.394;-80.022;2023-04-16T08:05:30;96791.67;;;22.97;36.87
74334;BME280;62753;40.394;-80.022;2023-04-16T08:07:55;96788.46;;;22.95;36.68
74334;BME280;62753;40.394;-80.022;2023-04-16T08:10:20;96783.79;;;23.09;36.65
74334;BME280;62753;40.394;-80.022;2023-04-16T08:12:45;96782.10;;;23.25;36.33
74334;BME280;62753;40.394;-80.022;2023-04-16T08:15:11;96780.12;;;23.09;36.24
74334;BME280;62753;40.394;-80.022;2023-04-16T08:17:37;96778.80;;;23.36;36.22
74334;BME280;62753;40.394;-80.022;2023-04-16T08:20:02;96781.06;;;23.26;36.58
74334;BME280;62753;40.394;-80.022;2023-04-16T08:22:27;96783.14;;;23.10;36.84
74334;BME280;62753;40.394;-80.022;2023-04-16T08:24:53;96788.02;;;23.13;36.45
74334;BME280;62753;40.394;-80.022;2023-04-16T08:27:18;96790.85;;;22.97;36.31
74334;BME280;62753;40.394;-80.022;2023-04-16T08:29:44;96791.32;;;22.95;36.31
74334;BME280;62753;40.394;-80.022;2023-04-16T08:32:09;96789.01;;;23.43;36.32
74334;BME280;62753;40.394;-80.022;2023-04-16T08:34:35;96794.66;;;23.30;36.35
74334;BME280;62753;40.394;-80.022;2023-04-16T08:37:00;96800.60;;;22.90;36.69
74334;BME280;62753;40.394;-80.022;2023-04-16T08:39:26;96802.62;;;22.61;36.91
74334;BME280;62753;40.394;-80.022;2023-04-16T08:41:53;96800.38;;;22.85;36.55
74334;BME280;62753;40.394;-80.022;2023-04-16T08:44:20;96795.93;;;23.06;36.40
74334;BME280;62753;40.394;-80.022;2023-04-16T08:46:43;96802.98;;;23.12;36.45
74334;BME280;62753;40.394;-80.022;2023-04-16T08:49:15;96800.22;;;23.08;36.65
74334;BME280;62753;40.394;-80.022;2023-04-16T08:51:34;96798.83;;;22.98;36.52
74334;BME280;62753;40.394;-80.022;2023-04-16T08:54:02;96797.92;;;23.16;36.26
74334;BME280;62753;40.394;-80.022;2023-04-16T08:56:24;96802.22;;;22.73;36.93
74334;BME280;62753;40.394;-80.022;2023-04-16T08:58:50;96802.25;;;23.01;37.03
74334;BME280;62753;40.394;-80.022;2023-04-16T09:01:15;96800.49;;;23.19;36.43
74334;BME280;62753;40.394;-80.022;2023-04-16T09:03:40;96796.92;;;22.96;36.98
74334;BME280;62753;40.394;-80.022;2023-04-16T09:06:05;96795.29;;;22.85;36.95
74334;BME280;62753;40.394;-80.022;2023-04-16T09:08:31;96791.61;;;22.91;36.79
74334;BME280;62753;40.394;-80.022;2023-04-16T09:10:56;96787.23;;;22.43;37.41
74334;BME280;62753;40.394;-80.022;2023-04-16T09:13:21;96786.74;;;22.92;37.31
74334;BME280;62753;40.394;-80.022;2023-04-16T09:15:47;96786.75;;;22.88;36.84
74334;BME280;62753;40.394;-80.022;2023-04-16T09:18:12;96790.38;;;22.85;36.90
74334;BME280;62753;40.394;-80.022;2023-04-16T09:20:39;96791.34;;;22.57;37.23
74334;BME280;62753;40.394;-80.022;2023-04-16T09:23:04;96791.55;;;22.62;37.41
74334;BME280;62753;40.394;-80.022;2023-04-16T09:25:32;96784.02;;;22.48;37.83
74334;BME280;62753;40.394;-80.022;2023-04-16T09:27:54;96777.16;;;22.12;37.89
74334;BME280;62753;40.394;-80.022;2023-04-16T09:30:22;96771.75;;;22.71;37.52
74334;BME280;62753;40.394;-80.022;2023-04-16T09:32:45;96767.35;;;22.44;37.69
74334;BME280;62753;40.394;-80.022;2023-04-16T09:35:10;96763.69;;;21.99;37.84
74334;BME280;62753;40.394;-80.022;2023-04-16T09:37:36;96762.09;;;22.49;37.40
74334;BME280;62753;40.394;-80.022;2023-04-16T09:40:02;96754.37;;;22.25;38.15
74334;BME280;62753;40.394;-80.022;2023-04-16T09:42:28;96751.13;;;22.65;37.44
74334;BME280;62753;40.394;-80.022;2023-04-16T09:44:52;96747.71;;;22.87;36.93
74334;BME280;62753;40.394;-80.022;2023-04-16T09:47:18;96745.98;;;22.29;37.36
74334;BME280;62753;40.394;-80.022;2023-04-16T09:49:44;96743.03;;;22.56;37.39
74334;BME280;62753;40.394;-80.022;2023-04-16T09:52:12;96736.22;;;22.69;37.69
74334;BME280;62753;40.394;-80.022;2023-04-16T09:54:34;96729.04;;;22.53;38.09
74334;BME280;62753;40.394;-80.022;2023-04-16T09:57:00;96728.06;;;22.21;38.67
74334;BME280;62753;40.394;-80.022;2023-04-16T09:59:27;96724.71;;;22.60;37.88
74334;BME280;62753;40.394;-80.022;2023-04-16T10:01:51;96723.09;;;21.79;38.93
74334;BME280;62753;40.394;-80.022;2023-04-16T10:04:16;96721.83;;;21.68;39.88
74334;BME280;62753;40.394;-80.022;2023-04-16T10:06:42;96718.26;;;21.81;39.23
74334;BME280;62753;40.394;-80.022;2023-04-16T10:09:08;96721.96;;;22.03;38.95
74334;BME280;62753;40.394;-80.022;2023-04-16T10:11:33;96725.19;;;22.07;38.81
74334;BME280;62753;40.394;-80.022;2023-04-16T10:13:59;96724.96;;;22.20;38.37
74334;BME280;62753;40.394;-80.022;2023-04-16T10:16:24;96733.39;;;22.21;38.16
74334;BME280;62753;40.394;-80.022;2023-04-16T10:18:49;96738.19;;;22.63;37.71
74334;BME280;62753;40.394;-80.022;2023-04-16T10:21:15;96739.16;;;22.44;37.78
74334;BME280;62753;40.394;-80.022;2023-04-16T10:23:42;96744.09;;;22.62;37.18
74334;BME280;62753;40.394;-80.022;2023-04-16T10:26:06;96747.02;;;22.91;37.56
74334;BME280;62753;40.394;-80.022;2023-04-16T10:28:32;96745.28;;;22.87;37.41
74334;BME280;62753;40.394;-80.022;2023-04-16T10:30:58;96744.53;;;22.31;38.34
74334;BME280;62753;40.394;-80.022;2023-04-16T10:33:26;96747.72;;;22.43;38.08
74334;BME280;62753;40.394;-80.022;2023-04-16T10:35:50;96753.53;;;20.97;41.43
74334;BME280;62753;40.394;-80.022;2023-04-16T10:38:24;96755.27;;;21.56;40.58
74334;BME280;62753;40.394;-80.022;2023-04-16T10:40:44;96762.70;;;21.73;39.76
74334;BME280;62753;40.394;-80.022;2023-04-16T10:43:06;96762.76;;;21.28;40.03
74334;BME280;62753;40.394;-80.022;2023-04-16T10:45:31;96761.48;;;21.59;40.41
74334;BME280;62753;40.394;-80.022;2023-04-16T10:47:56;96759.88;;;21.74;40.85
74334;BME280;62753;40.394;-80.022;2023-04-16T10:50:21;96759.43;;;21.97;40.39
74334;BME280;62753;40.394;-80.022;2023-04-16T10:52:47;96759.77;;;21.81;40.50
74334;BME280;62753;40.394;-80.022;2023-04-16T10:55:16;96758.50;;;21.96;39.77
74334;BME280;62753;40.394;-80.022;2023-04-16T10:57:37;96756.91;;;20.85;41.92
74334;BME280;62753;40.394;-80.022;2023-04-16T11:02:28;96754.12;;;21.06;42.13
74334;BME280;62753;40.394;-80.022;2023-04-16T11:04:56;96756.58;;;20.57;42.79
74334;BME280;62753;40.394;-80.022;2023-04-16T11:07:20;96763.22;;;21.60;41.23
74334;BME280;62753;40.394;-80.022;2023-04-16T11:09:50;96757.79;;;21.07;42.32
74334;BME280;62753;40.394;-80.022;2023-04-16T11:12:12;96760.97;;;21.15;41.82
74334;BME280;62753;40.394;-80.022;2023-04-16T11:14:35;96752.87;;;20.53;43.34
74334;BME280;62753;40.394;-80.022;2023-04-16T11:17:02;96745.95;;;20.07;43.58
74334;BME280;62753;40.394;-80.022;2023-04-16T11:19:26;96741.65;;;19.79;44.97
74334;BME280;62753;40.394;-80.022;2023-04-16T11:21:52;96737.96;;;19.95;45.26
74334;BME280;62753;40.394;-80.022;2023-04-16T11:24:17;96732.20;;;19.85;44.88
74334;BME280;62753;40.394;-80.022;2023-04-16T11:26:43;96730.08;;;19.57;45.40
74334;BME280;62753;40.394;-80.022;2023-04-16T11:29:13;96730.11;;;19.67;45.10
74334;BME280;62753;40.394;-80.022;2023-04-16T11:31:33;96729.35;;;20.17;44.62
74334;BME280;62753;40.394;-80.022;2023-04-16T11:33:59;96728.57;;;20.69;43.74
74334;BME280;62753;40.394;-80.022;2023-04-16T11:36:25;96731.67;;;20.51;43.52
74334;BME280;62753;40.394;-80.022;2023-04-16T11:38:50;96734.68;;;20.73;42.68
74334;BME280;62753;40.394;-80.022;2023-04-16T11:41:19;96731.24;;;21.44;41.43
74334;BME280;62753;40.394;-80.022;2023-04-16T11:43:40;96732.03;;;21.85;40.92
74334;BME280;62753;40.394;-80.022;2023-04-16T11:46:06;96731.15;;;21.36;41.55
74334;BME280;62753;40.394;-80.022;2023-04-16T11:48:45;96729.20;;;21.41;41.50
74334;BME280;62753;40.394;-80.022;2023-04-16T11:50:58;96723.35;;;21.67;41.76
74334;BME280;62753;40.394;-80.022;2023-04-16T11:53:23;96726.53;;;21.07;42.56
74334;BME280;62753;40.394;-80.022;2023-04-16T11:55:48;96729.59;;;20.84;43.17
74334;BME280;62753;40.394;-80.022;2023-04-16T11:58:15;96729.80;;;21.33;41.73
74334;BME280;62753;40.394;-80.022;2023-04-16T12:00:39;96730.83;;;21.76;41.59
74334;BME280;62753;40.394;-80.022;2023-04-16T12:03:04;96731.25;;;20.75;42.37
74334;BME280;62753;40.394;-80.022;2023-04-16T12:05:32;96732.41;;;20.60;43.57
74334;BME280;62753;40.394;-80.022;2023-04-16T12:07:55;96735.04;;;20.42;44.17
74334;BME280;62753;40.394;-80.022;2023-04-16T12:10:20;96733.77;;;20.63;44.26
74334;BME280;62753;40.394;-80.022;2023-04-16T12:12:46;96731.48;;;20.97;42.74
74334;BME280;62753;40.394;-80.022;2023-04-16T12:15:12;96728.22;;;20.77;44.00
74334;BME280;62753;40.394;-80.022;2023-04-16T12:17:37;96723.48;;;20.05;44.40
74334;BME280;62753;40.394;-80.022;2023-04-16T12:20:08;96723.28;;;20.60;44.59
74334;BME280;62753;40.394;-80.022;2023-04-16T12:22:30;96725.59;;;20.86;43.92
74334;BME280;62753;40.394;-80.022;2023-04-16T12:24:57;96726.24;;;20.53;44.15
74334;BME280;62753;40.394;-80.022;2023-04-16T12:27:19;96725.10;;;20.58;43.71
74334;BME280;62753;40.394;-80.022;2023-04-16T12:30:01;96721.14;;;21.15;42.79
74334;BME280;62753;40.394;-80.022;2023-04-16T12:37:06;96715.14;;;21.38;43.64